sensor_id;sensor_type;location;lat;lon;timestamp;pressure;altitude;pressure_sealevel;temperature;humidity
68948;BME280;55996;49.546;7.400;2022-11-15T00:00:03;98302.31;;;11.14;100.00
68948;BME280;55996;49.546;7.400;2022-11-15T00:02:29;98303.34;;;11.10;100.00
68948;BME280;55996;49.546;7.400;2022-11-15T00:04:54;98299.88;;;11.10;100.00
68948;BME280;55996;49.546;7.400;2022-11-15T00:07:20;98298.19;;;11.09;100.00
68948;BME280;55996;49.546;7.400;2022-11-15T00:09:45;98308.41;;;11.15;100.00
68948;BME280;55996;49.546;7.400;2022-11-15T00:12:10;98303.94;;;11.17;100.00
68948;BME280;55996;49.546;7.400;2022-11-15T00:14:36;98307.53;;;11.14;100.00
68948;BME280;55996;49.546;7.400;2022-11-15T00:17:01;98300.34;;;11.20;100.00
68948;BME280;55996;49.546;7.400;2022-11-15T00:19:27;98313.09;;;11.27;100.00
68948;BME280;55996;49.546;7.400;2022-11-15T00:21:52;98306.69;;;11.35;100.00
68948;BME280;55996;49.546;7.400;2022-11-15T00:24:17;98309.13;;;11.39;100.00
68948;BME280;55996;49.546;7.400;2022-11-15T00:26:43;98294.25;;;11.40;100.00
68948;BME280;55996;49.546;7.400;2022-11-15T00:29:08;98303.09;;;11.58;100.00
68948;BME280;55996;49.546;7.400;2022-11-15T00:31:33;98306.44;;;11.61;100.00
68948;BME280;55996;49.546;7.400;2022-11-15T00:33:59;98299.31;;;11.65;100.00
68948;BME280;55996;49.546;7.400;2022-11-15T00:36:24;98294.19;;;11.62;100.00
68948;BME280;55996;49.546;7.400;2022-11-15T00:38:50;98296.59;;;11.67;100.00
68948;BME280;55996;49.546;7.400;2022-11-15T00:41:15;98289.13;;;11.99;100.00
68948;BME280;55996;49.546;7.400;2022-11-15T00:43:40;98292.03;;;12.31;100.00
68948;BME280;55996;49.546;7.400;2022-11-15T00:46:08;98297.78;;;12.20;100.00
68948;BME280;55996;49.546;7.400;2022-11-15T00:48:35;98288.69;;;12.46;100.00
68948;BME280;55996;49.546;7.400;2022-11-15T00:51:00;98293.59;;;12.35;100.00
68948;BME280;55996;49.546;7.400;2022-11-15T00:53:26;98285.50;;;12.20;100.00
68948;BME280;55996;49.546;7.400;2022-11-15T00:55:52;98290.25;;;12.31;100.00
68948;BME280;55996;49.546;7.400;2022-11-15T00:58:17;98290.56;;;12.44;100.00
68948;BME280;55996;49.546;7.400;2022-11-15T01:00:43;98281.09;;;12.40;100.00
68948;BME280;55996;49.546;7.400;2022-11-15T01:03:08;98285.16;;;12.84;100.00
68948;BME280;55996;49.546;7.400;2022-11-15T01:05:36;98274.81;;;12.81;100.00
68948;BME280;55996;49.546;7.400;2022-11-15T01:08:01;98290.72;;;12.58;100.00
68948;BME280;55996;49.546;7.400;2022-11-15T01:10:27;98285.19;;;12.65;100.00
68948;BME280;55996;49.546;7.400;2022-11-15T01:12:52;98290.56;;;12.44;100.00
68948;BME280;55996;49.546;7.400;2022-11-15T01:15:18;98286.19;;;12.62;100.00
68948;BME280;55996;49.546;7.400;2022-11-15T01:17:43;98275.78;;;12.61;100.00
68948;BME280;55996;49.546;7.400;2022-11-15T01:20:09;98294.34;;;12.56;100.00
68948;BME280;55996;49.546;7.400;2022-11-15T01:22:34;98294.59;;;12.69;100.00
68948;BME280;55996;49.546;7.400;2022-11-15T01:25:00;98292.53;;;12.75;100.00
68948;BME280;55996;49.546;7.400;2022-11-15T01:27:25;98287.41;;;12.55;100.00
68948;BME280;55996;49.546;7.400;2022-11-15T01:29:50;98280.84;;;12.64;100.00
68948;BME280;55996;49.546;7.400;2022-11-15T01:32:16;98285.50;;;12.76;100.00
68948;BME280;55996;49.546;7.400;2022-11-15T01:34:41;98273.56;;;12.70;100.00
68948;BME280;55996;49.546;7.400;2022-11-15T01:37:07;98279.16;;;12.63;100.00
68948;BME280;55996;49.546;7.400;2022-11-15T01:39:33;98273.00;;;12.64;100.00
68948;BME280;55996;49.546;7.400;2022-11-15T01:41:58;98267.03;;;12.60;100.00
68948;BME280;55996;49.546;7.400;2022-11-15T01:44:45;98276.19;;;12.51;100.00
68948;BME280;55996;49.546;7.400;2022-11-15T01:47:37;98271.56;;;12.75;100.00
68948;BME280;55996;49.546;7.400;2022-11-15T01:50:10;98275.94;;;12.75;100.00
68948;BME280;55996;49.546;7.400;2022-11-15T01:52:38;98272.69;;;12.70;100.00
68948;BME280;55996;49.546;7.400;2022-11-15T01:55:08;98266.59;;;12.52;100.00
68948;BME280;55996;49.546;7.400;2022-11-15T01:57:34;98267.88;;;12.43;100.00
68948;BME280;55996;49.546;7.400;2022-11-15T02:00:07;98266.66;;;12.50;100.00
68948;BME280;55996;49.546;7.400;2022-11-15T02:02:34;98263.25;;;12.48;100.00
68948;BME280;55996;49.546;7.400;2022-11-15T02:05:27;98265.72;;;12.51;100.00
68948;BME280;55996;49.546;7.400;2022-11-15T02:08:08;98264.66;;;12.55;100.00
68948;BME280;55996;49.546;7.400;2022-11-15T02:11:07;98258.81;;;12.50;100.00
68948;BME280;55996;49.546;7.400;2022-11-15T02:14:11;98255.97;;;12.36;100.00
68948;BME280;55996;49.546;7.400;2022-11-15T02:32:21;98239.44;;;12.53;100.00
68948;BME280;55996;49.546;7.400;2022-11-15T02:41:30;98229.38;;;12.43;100.00
68948;BME280;55996;49.546;7.400;2022-11-15T02:44:01;98227.47;;;12.47;100.00
68948;BME280;55996;49.546;7.400;2022-11-15T02:47:03;98218.81;;;12.45;100.00
68948;BME280;55996;49.546;7.400;2022-11-15T02:50:15;98211.41;;;12.36;100.00
68948;BME280;55996;49.546;7.400;2022-11-15T02:52:48;98215.75;;;12.37;100.00
68948;BME280;55996;49.546;7.400;2022-11-15T03:01:38;98214.66;;;12.41;100.00
68948;BME280;55996;49.546;7.400;2022-11-15T03:23:17;98202.69;;;12.35;100.00
68948;BME280;55996;49.546;7.400;2022-11-15T03:26:01;98205.53;;;12.31;100.00
68948;BME280;55996;49.546;7.400;2022-11-15T03:32:07;98206.31;;;12.33;100.00
68948;BME280;55996;49.546;7.400;2022-11-15T03:38:39;98193.25;;;12.50;100.00
68948;BME280;55996;49.546;7.400;2022-11-15T04:01:32;98190.88;;;11.69;100.00
68948;BME280;55996;49.546;7.400;2022-11-15T04:04:06;98204.31;;;11.61;100.00
68948;BME280;55996;49.546;7.400;2022-11-15T04:06:49;98200.78;;;11.62;100.00
68948;BME280;55996;49.546;7.400;2022-11-15T04:09:18;98192.22;;;11.59;100.00
68948;BME280;55996;49.546;7.400;2022-11-15T04:11:43;98190.59;;;11.56;100.00
68948;BME280;55996;49.546;7.400;2022-11-15T04:14:08;98183.28;;;11.44;100.00
68948;BME280;55996;49.546;7.400;2022-11-15T04:16:44;98176.56;;;11.38;100.00
68948;BME280;55996;49.546;7.400;2022-11-15T04:19:15;98181.97;;;11.14;100.00
68948;BME280;55996;49.546;7.400;2022-11-15T04:22:07;98176.66;;;11.16;100.00
68948;BME280;55996;49.546;7.400;2022-11-15T04:25:13;98178.78;;;11.08;100.00
68948;BME280;55996;49.546;7.400;2022-11-15T04:31:21;98170.66;;;10.93;100.00
68948;BME280;55996;49.546;7.400;2022-11-15T04:33:47;98175.06;;;10.93;100.00
68948;BME280;55996;49.546;7.400;2022-11-15T04:36:15;98173.53;;;10.87;100.00
68948;BME280;55996;49.546;7.400;2022-11-15T04:39:08;98176.94;;;10.89;100.00
68948;BME280;55996;49.546;7.400;2022-11-15T04:41:34;98192.75;;;10.86;100.00
68948;BME280;55996;49.546;7.400;2022-11-15T04:44:05;98183.81;;;10.92;100.00
68948;BME280;55996;49.546;7.400;2022-11-15T04:46:31;98174.72;;;11.01;100.00
68948;BME280;55996;49.546;7.400;2022-11-15T04:49:02;98176.88;;;11.11;100.00
68948;BME280;55996;49.546;7.400;2022-11-15T04:51:43;98181.22;;;11.32;100.00
68948;BME280;55996;49.546;7.400;2022-11-15T04:54:14;98174.53;;;11.45;100.00
68948;BME280;55996;49.546;7.400;2022-11-15T04:56:55;98173.47;;;11.49;100.00
68948;BME280;55996;49.546;7.400;2022-11-15T04:59:33;98162.28;;;11.45;100.00
68948;BME280;55996;49.546;7.400;2022-11-15T05:02:13;98165.09;;;11.41;100.00
68948;BME280;55996;49.546;7.400;2022-11-15T05:07:48;98165.25;;;11.57;100.00
68948;BME280;55996;49.546;7.400;2022-11-15T05:10:16;98159.59;;;11.47;100.00
68948;BME280;55996;49.546;7.400;2022-11-15T05:12:46;98168.63;;;11.40;100.00
68948;BME280;55996;49.546;7.400;2022-11-15T05:15:17;98175.00;;;11.34;100.00
68948;BME280;55996;49.546;7.400;2022-11-15T05:18:00;98175.13;;;11.31;100.00
68948;BME280;55996;49.546;7.400;2022-11-15T05:20:34;98171.66;;;11.30;100.00
68948;BME280;55996;49.546;7.400;2022-11-15T05:22:59;98169.84;;;11.33;100.00
68948;BME280;55996;49.546;7.400;2022-11-15T05:28:56;98172.13;;;11.40;100.00
68948;BME280;55996;49.546;7.400;2022-11-15T05:34:36;98174.72;;;11.40;100.00
68948;BME280;55996;49.546;7.400;2022-11-15T05:41:03;98170.22;;;11.44;100.00
68948;BME280;55996;49.546;7.400;2022-11-15T05:44:17;98172.75;;;11.45;100.00
68948;BME280;55996;49.546;7.400;2022-11-15T05:47:28;98173.19;;;11.55;100.00
68948;BME280;55996;49.546;7.400;2022-11-15T05:53:38;98161.44;;;11.64;100.00
68948;BME280;55996;49.546;7.400;2022-11-15T05:56:08;98161.66;;;11.59;100.00
68948;BME280;55996;49.546;7.400;2022-11-15T05:59:05;98162.44;;;11.61;100.00
68948;BME280;55996;49.546;7.400;2022-11-15T06:02:02;98161.03;;;11.73;100.00
68948;BME280;55996;49.546;7.400;2022-11-15T06:04:28;98165.47;;;11.71;100.00
68948;BME280;55996;49.546;7.400;2022-11-15T06:06:58;98166.41;;;11.70;100.00
68948;BME280;55996;49.546;7.400;2022-11-15T06:12:56;98161.66;;;11.78;100.00
68948;BME280;55996;49.546;7.400;2022-11-15T06:15:22;98160.78;;;11.78;100.00
68948;BME280;55996;49.546;7.400;2022-11-15T06:18:18;98163.41;;;11.78;100.00
68948;BME280;55996;49.546;7.400;2022-11-15T06:23:22;98165.56;;;11.70;100.00
68948;BME280;55996;49.546;7.400;2022-11-15T06:25:47;98165.41;;;11.73;100.00
68948;BME280;55996;49.546;7.400;2022-11-15T06:28:13;98164.97;;;11.63;100.00
68948;BME280;55996;49.546;7.400;2022-11-15T06:30:38;98170.78;;;11.70;100.00
68948;BME280;55996;49.546;7.400;2022-11-15T06:33:05;98169.09;;;11.69;100.00
68948;BME280;55996;49.546;7.400;2022-11-15T06:35:34;98171.78;;;11.67;100.00
68948;BME280;55996;49.546;7.400;2022-11-15T06:38:08;98183.66;;;11.74;100.00
68948;BME280;55996;49.546;7.400;2022-11-15T06:40:35;98181.97;;;11.73;100.00
68948;BME280;55996;49.546;7.400;2022-11-15T06:43:01;98176.47;;;11.79;100.00
68948;BME280;55996;49.546;7.400;2022-11-15T06:45:27;98175.03;;;11.72;100.00
68948;BME280;55996;49.546;7.400;2022-11-15T06:47:52;98178.50;;;11.73;100.00
68948;BME280;55996;49.546;7.400;2022-11-15T06:50:18;98183.72;;;11.73;100.00
68948;BME280;55996;49.546;7.400;2022-11-15T06:52:43;98181.00;;;11.76;100.00
68948;BME280;55996;49.546;7.400;2022-11-15T06:55:09;98177.94;;;11.85;100.00
68948;BME280;55996;49.546;7.400;2022-11-15T06:57:35;98175.47;;;11.82;100.00
68948;BME280;55996;49.546;7.400;2022-11-15T07:00:01;98175.59;;;11.79;100.00
68948;BME280;55996;49.546;7.400;2022-11-15T07:02:26;98174.69;;;11.80;100.00
68948;BME280;55996;49.546;7.400;2022-11-15T07:04:52;98175.09;;;11.90;100.00
68948;BME280;55996;49.546;7.400;2022-11-15T07:07:17;98180.09;;;11.96;100.00
68948;BME280;55996;49.546;7.400;2022-11-15T07:09:42;98177.47;;;11.96;100.00
68948;BME280;55996;49.546;7.400;2022-11-15T07:12:08;98182.75;;;11.94;100.00
68948;BME280;55996;49.546;7.400;2022-11-15T07:14:33;98180.94;;;11.97;100.00
68948;BME280;55996;49.546;7.400;2022-11-15T07:16:59;98182.34;;;12.04;100.00
68948;BME280;55996;49.546;7.400;2022-11-15T07:19:24;98184.97;;;12.04;100.00
68948;BME280;55996;49.546;7.400;2022-11-15T07:21:50;98178.31;;;11.97;100.00
68948;BME280;55996;49.546;7.400;2022-11-15T07:24:15;98178.31;;;11.97;100.00
68948;BME280;55996;49.546;7.400;2022-11-15T07:26:41;98184.53;;;12.13;100.00
68948;BME280;55996;49.546;7.400;2022-11-15T07:29:06;98177.88;;;12.06;100.00
68948;BME280;55996;49.546;7.400;2022-11-15T07:31:31;98178.66;;;12.08;100.00
68948;BME280;55996;49.546;7.400;2022-11-15T07:33:57;98182.69;;;12.15;100.00
68948;BME280;55996;49.546;7.400;2022-11-15T07:36:22;98162.88;;;12.09;100.00
68948;BME280;55996;49.546;7.400;2022-11-15T07:38:48;98174.97;;;12.12;100.00
68948;BME280;55996;49.546;7.400;2022-11-15T07:41:13;98184.38;;;12.16;100.00
68948;BME280;55996;49.546;7.400;2022-11-15T07:43:39;98178.00;;;12.22;100.00
68948;BME280;55996;49.546;7.400;2022-11-15T07:46:08;98183.38;;;12.19;100.00
68948;BME280;55996;49.546;7.400;2022-11-15T07:48:38;98177.50;;;12.14;100.00
68948;BME280;55996;49.546;7.400;2022-11-15T07:51:05;98172.91;;;12.19;100.00
68948;BME280;55996;49.546;7.400;2022-11-15T07:53:31;98179.97;;;12.17;100.00
68948;BME280;55996;49.546;7.400;2022-11-15T07:55:56;98181.75;;;12.16;100.00
68948;BME280;55996;49.546;7.400;2022-11-15T07:58:22;98180.88;;;12.35;100.00
68948;BME280;55996;49.546;7.400;2022-11-15T08:00:47;98170.06;;;12.23;100.00
68948;BME280;55996;49.546;7.400;2022-11-15T08:03:15;98178.47;;;12.30;100.00
68948;BME280;55996;49.546;7.400;2022-11-15T08:05:42;98174.72;;;12.36;100.00
68948;BME280;55996;49.546;7.400;2022-11-15T08:08:09;98175.50;;;12.38;100.00
68948;BME280;55996;49.546;7.400;2022-11-15T08:10:35;98163.94;;;12.42;100.00
68948;BME280;55996;49.546;7.400;2022-11-15T08:13:03;98170.41;;;12.52;100.00
68948;BME280;55996;49.546;7.400;2022-11-15T08:15:30;98165.16;;;12.52;100.00
68948;BME280;55996;49.546;7.400;2022-11-15T08:17:57;98164.16;;;12.55;100.00
68948;BME280;55996;49.546;7.400;2022-11-15T08:20:24;98163.09;;;12.77;100.00
68948;BME280;55996;49.546;7.400;2022-11-15T08:22:50;98156.84;;;12.62;100.00
68948;BME280;55996;49.546;7.400;2022-11-15T08:25:15;98153.06;;;12.67;100.00
68948;BME280;55996;49.546;7.400;2022-11-15T08:27:41;98151.03;;;12.72;100.00
68948;BME280;55996;49.546;7.400;2022-11-15T08:30:07;98154.53;;;12.73;100.00
68948;BME280;55996;49.546;7.400;2022-11-15T08:32:32;98156.47;;;12.69;100.00
68948;BME280;55996;49.546;7.400;2022-11-15T08:34:58;98148.81;;;12.65;100.00
68948;BME280;55996;49.546;7.400;2022-11-15T08:37:23;98159.91;;;12.70;100.00
68948;BME280;55996;49.546;7.400;2022-11-15T08:39:48;98144.56;;;12.62;100.00
68948;BME280;55996;49.546;7.400;2022-11-15T08:42:14;98148.28;;;12.58;100.00
68948;BME280;55996;49.546;7.400;2022-11-15T08:44:41;98131.56;;;12.61;100.00
68948;BME280;55996;49.546;7.400;2022-11-15T08:47:06;98138.63;;;12.76;100.00
68948;BME280;55996;49.546;7.400;2022-11-15T08:49:32;98138.72;;;12.74;100.00
68948;BME280;55996;49.546;7.400;2022-11-15T08:51:57;98142.63;;;12.83;100.00
68948;BME280;55996;49.546;7.400;2022-11-15T08:54:22;98132.94;;;12.85;100.00
68948;BME280;55996;49.546;7.400;2022-11-15T08:56:48;98117.72;;;12.92;100.00
68948;BME280;55996;49.546;7.400;2022-11-15T08:59:13;98129.66;;;12.98;100.00
68948;BME280;55996;49.546;7.400;2022-11-15T09:01:39;98122.53;;;13.00;100.00
68948;BME280;55996;49.546;7.400;2022-11-15T09:04:04;98124.84;;;13.06;100.00
68948;BME280;55996;49.546;7.400;2022-11-15T09:06:30;98119.69;;;13.04;100.00
68948;BME280;55996;49.546;7.400;2022-11-15T09:08:56;98114.44;;;13.04;100.00
68948;BME280;55996;49.546;7.400;2022-11-15T09:11:22;98115.31;;;13.05;100.00
68948;BME280;55996;49.546;7.400;2022-11-15T09:13:49;98118.69;;;13.07;100.00
68948;BME280;55996;49.546;7.400;2022-11-15T09:16:14;98104.97;;;13.02;100.00
68948;BME280;55996;49.546;7.400;2022-11-15T09:18:41;98117.44;;;13.14;100.00
68948;BME280;55996;49.546;7.400;2022-11-15T09:21:07;98121.94;;;13.28;100.00
68948;BME280;55996;49.546;7.400;2022-11-15T09:23:33;98117.94;;;13.38;100.00
68948;BME280;55996;49.546;7.400;2022-11-15T09:26:00;98118.13;;;13.51;100.00
68948;BME280;55996;49.546;7.400;2022-11-15T09:28:28;98116.69;;;13.62;100.00
68948;BME280;55996;49.546;7.400;2022-11-15T09:31:01;98122.53;;;13.51;100.00
68948;BME280;55996;49.546;7.400;2022-11-15T09:33:27;98113.03;;;13.64;100.00
68948;BME280;55996;49.546;7.400;2022-11-15T09:35:53;98111.63;;;13.91;100.00
68948;BME280;55996;49.546;7.400;2022-11-15T09:38:19;98118.69;;;14.20;100.00
68948;BME280;55996;49.546;7.400;2022-11-15T09:40:49;98114.81;;;14.42;100.00
68948;BME280;55996;49.546;7.400;2022-11-15T09:46:01;98119.66;;;14.50;100.00
68948;BME280;55996;49.546;7.400;2022-11-15T09:48:51;98102.91;;;14.51;100.00
68948;BME280;55996;49.546;7.400;2022-11-15T09:51:33;98096.72;;;14.52;100.00
68948;BME280;55996;49.546;7.400;2022-11-15T09:56:43;98096.59;;;14.39;100.00
68948;BME280;55996;49.546;7.400;2022-11-15T09:59:46;98094.34;;;14.17;100.00
68948;BME280;55996;49.546;7.400;2022-11-15T10:04:53;98081.69;;;14.24;100.00
68948;BME280;55996;49.546;7.400;2022-11-15T10:07:25;98082.28;;;14.29;100.00
68948;BME280;55996;49.546;7.400;2022-11-15T10:10:27;98079.03;;;14.40;100.00
68948;BME280;55996;49.546;7.400;2022-11-15T10:12:55;98072.94;;;14.39;100.00
68948;BME280;55996;49.546;7.400;2022-11-15T10:15:21;98061.47;;;14.10;100.00
68948;BME280;55996;49.546;7.400;2022-11-15T10:20:39;98047.44;;;13.95;100.00
68948;BME280;55996;49.546;7.400;2022-11-15T10:23:11;98053.88;;;13.89;100.00
68948;BME280;55996;49.546;7.400;2022-11-15T10:25:38;98046.78;;;13.75;100.00
68948;BME280;55996;49.546;7.400;2022-11-15T10:28:21;98050.31;;;13.74;100.00
68948;BME280;55996;49.546;7.400;2022-11-15T10:30:52;98045.25;;;13.87;100.00
68948;BME280;55996;49.546;7.400;2022-11-15T10:33:38;98047.28;;;13.82;100.00
68948;BME280;55996;49.546;7.400;2022-11-15T10:41:14;98025.41;;;13.81;100.00
68948;BME280;55996;49.546;7.400;2022-11-15T10:43:40;98024.22;;;13.87;100.00
68948;BME280;55996;49.546;7.400;2022-11-15T10:46:36;98018.59;;;14.09;100.00
68948;BME280;55996;49.546;7.400;2022-11-15T10:49:15;98014.28;;;14.23;100.00
68948;BME280;55996;49.546;7.400;2022-11-15T10:51:57;98015.13;;;14.23;100.00
68948;BME280;55996;49.546;7.400;2022-11-15T10:56:59;98010.34;;;14.30;100.00
68948;BME280;55996;49.546;7.400;2022-11-15T10:59:28;98009.97;;;14.36;100.00
68948;BME280;55996;49.546;7.400;2022-11-15T11:01:55;98009.63;;;14.42;100.00
68948;BME280;55996;49.546;7.400;2022-11-15T11:04:20;98010.94;;;14.49;100.00
68948;BME280;55996;49.546;7.400;2022-11-15T11:06:57;98001.91;;;14.53;100.00
68948;BME280;55996;49.546;7.400;2022-11-15T11:11:52;97978.50;;;14.65;100.00
68948;BME280;55996;49.546;7.400;2022-11-15T11:16:50;97973.88;;;14.68;100.00
68948;BME280;55996;49.546;7.400;2022-11-15T11:19:31;97978.28;;;14.68;100.00
68948;BME280;55996;49.546;7.400;2022-11-15T11:24:49;97965.59;;;14.75;100.00
68948;BME280;55996;49.546;7.400;2022-11-15T11:35:13;97952.22;;;14.34;100.00
68948;BME280;55996;49.546;7.400;2022-11-15T11:40:28;97952.44;;;14.31;100.00
68948;BME280;55996;49.546;7.400;2022-11-15T11:43:21;97943.88;;;14.42;100.00
68948;BME280;55996;49.546;7.400;2022-11-15T11:48:44;97950.28;;;14.52;100.00
68948;BME280;55996;49.546;7.400;2022-11-15T11:51:47;97948.38;;;14.55;100.00
68948;BME280;55996;49.546;7.400;2022-11-15T11:54:20;97941.91;;;14.60;100.00
68948;BME280;55996;49.546;7.400;2022-11-15T11:56:48;97952.91;;;14.67;100.00
68948;BME280;55996;49.546;7.400;2022-11-15T11:59:28;97939.47;;;14.57;100.00
68948;BME280;55996;49.546;7.400;2022-11-15T12:02:02;97927.25;;;14.56;100.00
68948;BME280;55996;49.546;7.400;2022-11-15T12:04:40;97915.44;;;14.49;100.00
68948;BME280;55996;49.546;7.400;2022-11-15T12:07:11;97904.34;;;14.44;100.00
68948;BME280;55996;49.546;7.400;2022-11-15T12:09:45;97901.63;;;14.45;100.00
68948;BME280;55996;49.546;7.400;2022-11-15T12:15:23;97897.09;;;14.62;100.00
68948;BME280;55996;49.546;7.400;2022-11-15T12:17:50;97887.50;;;14.61;100.00
68948;BME280;55996;49.546;7.400;2022-11-15T12:20:27;97888.81;;;14.53;100.00
68948;BME280;55996;49.546;7.400;2022-11-15T12:25:50;97872.50;;;14.48;100.00
68948;BME280;55996;49.546;7.400;2022-11-15T12:28:40;97863.88;;;14.46;100.00
68948;BME280;55996;49.546;7.400;2022-11-15T12:33:58;97864.91;;;14.44;100.00
68948;BME280;55996;49.546;7.400;2022-11-15T12:39:03;97852.38;;;14.47;100.00
68948;BME280;55996;49.546;7.400;2022-11-15T12:41:34;97850.69;;;14.61;100.00
68948;BME280;55996;49.546;7.400;2022-11-15T12:44:00;97838.00;;;14.53;100.00
68948;BME280;55996;49.546;7.400;2022-11-15T13:02:22;97827.91;;;14.89;100.00
68948;BME280;55996;49.546;7.400;2022-11-15T13:04:50;97822.16;;;14.96;100.00
68948;BME280;55996;49.546;7.400;2022-11-15T13:10:06;97808.16;;;14.96;100.00
68948;BME280;55996;49.546;7.400;2022-11-15T13:28:03;97771.97;;;15.12;100.00
68948;BME280;55996;49.546;7.400;2022-11-15T13:30:36;97774.19;;;15.19;100.00
68948;BME280;55996;49.546;7.400;2022-11-15T13:33:09;97771.16;;;15.25;100.00
68948;BME280;55996;49.546;7.400;2022-11-15T13:35:39;97772.91;;;15.24;100.00
68948;BME280;55996;49.546;7.400;2022-11-15T13:38:05;97759.88;;;15.23;100.00
68948;BME280;55996;49.546;7.400;2022-11-15T13:40:36;97763.44;;;15.22;100.00
68948;BME280;55996;49.546;7.400;2022-11-15T13:43:32;97753.94;;;15.06;100.00
68948;BME280;55996;49.546;7.400;2022-11-15T13:48:42;97746.06;;;15.06;100.00
68948;BME280;55996;49.546;7.400;2022-11-15T13:51:42;97747.34;;;15.13;100.00
68948;BME280;55996;49.546;7.400;2022-11-15T13:54:23;97742.78;;;15.03;100.00
68948;BME280;55996;49.546;7.400;2022-11-15T13:56:57;97732.97;;;14.92;100.00
68948;BME280;55996;49.546;7.400;2022-11-15T13:59:29;97732.78;;;14.95;100.00
68948;BME280;55996;49.546;7.400;2022-11-15T14:01:58;97729.09;;;14.97;100.00
68948;BME280;55996;49.546;7.400;2022-11-15T14:04:26;97722.97;;;14.97;100.00
68948;BME280;55996;49.546;7.400;2022-11-15T14:06:58;97719.78;;;14.92;100.00
68948;BME280;55996;49.546;7.400;2022-11-15T14:09:40;97722.03;;;14.98;100.00
68948;BME280;55996;49.546;7.400;2022-11-15T14:14:52;97715.06;;;14.84;100.00
68948;BME280;55996;49.546;7.400;2022-11-15T14:19:57;97697.06;;;14.91;100.00
68948;BME280;55996;49.546;7.400;2022-11-15T14:22:24;97689.78;;;14.81;100.00
68948;BME280;55996;49.546;7.400;2022-11-15T14:25:16;97691.66;;;14.79;100.00
68948;BME280;55996;49.546;7.400;2022-11-15T14:27:44;97690.09;;;14.77;100.00
68948;BME280;55996;49.546;7.400;2022-11-15T14:30:29;97686.81;;;14.73;100.00
68948;BME280;55996;49.546;7.400;2022-11-15T14:32:54;97685.59;;;14.64;100.00
68948;BME280;55996;49.546;7.400;2022-11-15T14:35:21;97685.81;;;14.61;100.00
68948;BME280;55996;49.546;7.400;2022-11-15T14:37:48;97676.94;;;14.49;100.00
68948;BME280;55996;49.546;7.400;2022-11-15T14:40:21;97676.41;;;14.44;100.00
68948;BME280;55996;49.546;7.400;2022-11-15T14:42:48;97657.97;;;14.31;100.00
68948;BME280;55996;49.546;7.400;2022-11-15T14:45:20;97664.16;;;14.30;100.00
68948;BME280;55996;49.546;7.400;2022-11-15T14:47:46;97673.38;;;14.23;100.00
68948;BME280;55996;49.546;7.400;2022-11-15T14:50:17;97659.59;;;14.19;100.00
68948;BME280;55996;49.546;7.400;2022-11-15T14:52:43;97659.75;;;14.16;100.00
68948;BME280;55996;49.546;7.400;2022-11-15T14:57:46;97658.66;;;14.20;100.00
68948;BME280;55996;49.546;7.400;2022-11-15T15:00:12;97653.16;;;14.24;100.00
68948;BME280;55996;49.546;7.400;2022-11-15T15:02:40;97653.38;;;14.20;100.00
68948;BME280;55996;49.546;7.400;2022-11-15T15:05:39;97653.41;;;14.33;100.00
68948;BME280;55996;49.546;7.400;2022-11-15T15:08:05;97646.06;;;14.39;100.00
68948;BME280;55996;49.546;7.400;2022-11-15T15:10:34;97637.63;;;14.20;100.00
68948;BME280;55996;49.546;7.400;2022-11-15T15:12:59;97646.00;;;14.40;100.00
68948;BME280;55996;49.546;7.400;2022-11-15T15:15:31;97637.69;;;14.46;100.00
68948;BME280;55996;49.546;7.400;2022-11-15T15:17:56;97637.13;;;14.41;100.00
68948;BME280;55996;49.546;7.400;2022-11-15T15:20:22;97637.53;;;14.35;100.00
68948;BME280;55996;49.546;7.400;2022-11-15T15:22:47;97628.47;;;14.26;100.00
68948;BME280;55996;49.546;7.400;2022-11-15T15:27:45;97631.75;;;14.30;100.00
68948;BME280;55996;49.546;7.400;2022-11-15T15:30:11;97621.63;;;14.24;100.00
68948;BME280;55996;49.546;7.400;2022-11-15T15:32:36;97625.59;;;14.16;100.00
68948;BME280;55996;49.546;7.400;2022-11-15T15:35:02;97622.00;;;14.04;100.00
68948;BME280;55996;49.546;7.400;2022-11-15T15:37:28;97630.53;;;14.08;100.00
68948;BME280;55996;49.546;7.400;2022-11-15T15:39:56;97622.94;;;14.03;100.00
68948;BME280;55996;49.546;7.400;2022-11-15T15:42:22;97619.84;;;13.97;100.00
68948;BME280;55996;49.546;7.400;2022-11-15T15:44:49;97619.28;;;13.92;100.00
68948;BME280;55996;49.546;7.400;2022-11-15T15:47:22;97617.25;;;13.82;100.00
68948;BME280;55996;49.546;7.400;2022-11-15T15:49:51;97610.41;;;13.80;100.00
68948;BME280;55996;49.546;7.400;2022-11-15T15:52:17;97618.16;;;13.68;100.00
68948;BME280;55996;49.546;7.400;2022-11-15T15:54:42;97613.28;;;13.62;100.00
68948;BME280;55996;49.546;7.400;2022-11-15T15:57:11;97612.13;;;13.66;100.00
68948;BME280;55996;49.546;7.400;2022-11-15T15:59:37;97605.69;;;13.58;100.00
68948;BME280;55996;49.546;7.400;2022-11-15T16:02:02;97610.56;;;13.49;100.00
68948;BME280;55996;49.546;7.400;2022-11-15T16:04:28;97607.09;;;13.49;100.00
68948;BME280;55996;49.546;7.400;2022-11-15T16:06:58;97600.72;;;13.53;100.00
68948;BME280;55996;49.546;7.400;2022-11-15T16:09:24;97607.19;;;13.47;100.00
68948;BME280;55996;49.546;7.400;2022-11-15T16:12:09;97607.09;;;13.49;100.00
68948;BME280;55996;49.546;7.400;2022-11-15T16:14:35;97598.41;;;13.48;100.00
68948;BME280;55996;49.546;7.400;2022-11-15T16:17:01;97602.59;;;13.36;100.00
68948;BME280;55996;49.546;7.400;2022-11-15T16:19:26;97585.13;;;13.35;100.00
68948;BME280;55996;49.546;7.400;2022-11-15T16:21:52;97595.53;;;13.37;100.00
68948;BME280;55996;49.546;7.400;2022-11-15T16:24:18;97595.75;;;13.34;100.00
68948;BME280;55996;49.546;7.400;2022-11-15T16:26:44;97588.91;;;13.17;100.00
68948;BME280;55996;49.546;7.400;2022-11-15T16:29:10;97596.78;;;13.17;100.00